sensor_id;sensor_type;location;lat;lon;timestamp;temperature;humidity
37956;DHT22;23776;51.592;7.180;2023-01-06T00:02:07;10.50;70.40
37956;DHT22;23776;51.592;7.180;2023-01-06T00:04:32;10.50;70.40
37956;DHT22;23776;51.592;7.180;2023-01-06T00:06:58;10.50;70.40
37956;DHT22;23776;51.592;7.180;2023-01-06T00:09:23;10.60;70.20
37956;DHT22;23776;51.592;7.180;2023-01-06T00:11:49;10.60;69.60
37956;DHT22;23776;51.592;7.180;2023-01-06T00:14:14;10.60;70.00
37956;DHT22;23776;51.592;7.180;2023-01-06T00:16:40;10.70;70.00
37956;DHT22;23776;51.592;7.180;2023-01-06T00:19:06;10.70;69.40
37956;DHT22;23776;51.592;7.180;2023-01-06T00:21:31;12.40;70.00
37956;DHT22;23776;51.592;7.180;2023-01-06T00:23:57;10.70;68.90
37956;DHT22;23776;51.592;7.180;2023-01-06T00:26:23;10.80;68.50
37956;DHT22;23776;51.592;7.180;2023-01-06T00:28:52;10.80;67.70
37956;DHT22;23776;51.592;7.180;2023-01-06T00:31:18;11.00;67.70
37956;DHT22;23776;51.592;7.180;2023-01-06T00:33:43;10.80;66.50
37956;DHT22;23776;51.592;7.180;2023-01-06T00:36:11;10.80;66.60
37956;DHT22;23776;51.592;7.180;2023-01-06T00:38:37;10.80;65.00
37956;DHT22;23776;51.592;7.180;2023-01-06T00:41:08;11.20;64.50
37956;DHT22;23776;51.592;7.180;2023-01-06T00:43:55;11.70;63.70
37956;DHT22;23776;51.592;7.180;2023-01-06T00:46:21;10.90;62.60
37956;DHT22;23776;51.592;7.180;2023-01-06T00:48:49;10.80;62.40
37956;DHT22;23776;51.592;7.180;2023-01-06T00:51:15;11.00;59.20
37956;DHT22;23776;51.592;7.180;2023-01-06T00:53:40;10.80;59.00
37956;DHT22;23776;51.592;7.180;2023-01-06T00:56:06;10.80;58.90
37956;DHT22;23776;51.592;7.180;2023-01-06T00:58:32;10.80;58.40
37956;DHT22;23776;51.592;7.180;2023-01-06T01:00:58;10.80;53.40
37956;DHT22;23776;51.592;7.180;2023-01-06T01:03:24;10.90;52.50
37956;DHT22;23776;51.592;7.180;2023-01-06T01:05:50;11.40;53.90
37956;DHT22;23776;51.592;7.180;2023-01-06T01:08:15;10.90;53.70
37956;DHT22;23776;51.592;7.180;2023-01-06T01:10:41;10.80;53.70
37956;DHT22;23776;51.592;7.180;2023-01-06T01:13:07;10.90;52.50
37956;DHT22;23776;51.592;7.180;2023-01-06T01:15:32;10.80;53.60
37956;DHT22;23776;51.592;7.180;2023-01-06T01:17:58;8.90;51.60
37956;DHT22;23776;51.592;7.180;2023-01-06T01:20:23;10.80;52.30
37956;DHT22;23776;51.592;7.180;2023-01-06T01:22:49;11.50;51.80
37956;DHT22;23776;51.592;7.180;2023-01-06T01:25:14;11.00;50.40
37956;DHT22;23776;51.592;7.180;2023-01-06T01:27:40;10.90;48.50
37956;DHT22;23776;51.592;7.180;2023-01-06T01:30:06;10.80;46.20
37956;DHT22;23776;51.592;7.180;2023-01-06T01:32:32;10.90;44.60
37956;DHT22;23776;51.592;7.180;2023-01-06T01:34:57;10.90;44.70
37956;DHT22;23776;51.592;7.180;2023-01-06T01:37:23;10.80;42.70
37956;DHT22;23776;51.592;7.180;2023-01-06T01:39:48;10.80;43.10
37956;DHT22;23776;51.592;7.180;2023-01-06T01:42:16;10.80;40.50
37956;DHT22;23776;51.592;7.180;2023-01-06T01:52:41;10.90;35.80
37956;DHT22;23776;51.592;7.180;2023-01-06T01:55:08;10.80;29.70
37956;DHT22;23776;51.592;7.180;2023-01-06T01:57:44;10.80;30.80
37956;DHT22;23776;51.592;7.180;2023-01-06T02:00:10;10.80;29.70
37956;DHT22;23776;51.592;7.180;2023-01-06T02:02:36;10.80;29.00
37956;DHT22;23776;51.592;7.180;2023-01-06T02:05:03;11.50;31.30
37956;DHT22;23776;51.592;7.180;2023-01-06T02:07:29;10.80;29.00
37956;DHT22;23776;51.592;7.180;2023-01-06T02:10:11;10.80;29.60
37956;DHT22;23776;51.592;7.180;2023-01-06T02:12:38;10.80;25.40
37956;DHT22;23776;51.592;7.180;2023-01-06T02:15:20;10.80;22.20
37956;DHT22;23776;51.592;7.180;2023-01-06T02:23:56;10.80;17.60
37956;DHT22;23776;51.592;7.180;2023-01-06T02:32:47;10.80;18.00
37956;DHT22;23776;51.592;7.180;2023-01-06T02:38:46;10.80;16.30
37956;DHT22;23776;51.592;7.180;2023-01-06T02:41:25;10.80;16.20
37956;DHT22;23776;51.592;7.180;2023-01-06T02:44:16;10.80;12.70
37956;DHT22;23776;51.592;7.180;2023-01-06T02:47:18;10.80;13.70
37956;DHT22;23776;51.592;7.180;2023-01-06T02:49:52;10.80;15.30
37956;DHT22;23776;51.592;7.180;2023-01-06T02:52:34;10.80;13.20
37956;DHT22;23776;51.592;7.180;2023-01-06T02:55:16;10.80;13.00
37956;DHT22;23776;51.592;7.180;2023-01-06T03:00:30;10.80;8.60
37956;DHT22;23776;51.592;7.180;2023-01-06T03:03:00;10.80;8.80
37956;DHT22;23776;51.592;7.180;2023-01-06T03:05:31;10.90;10.10
37956;DHT22;23776;51.592;7.180;2023-01-06T03:08:01;10.90;7.00
37956;DHT22;23776;51.592;7.180;2023-01-06T03:10:28;10.80;5.70
37956;DHT22;23776;51.592;7.180;2023-01-06T03:13:03;10.90;7.60
37956;DHT22;23776;51.592;7.180;2023-01-06T03:15:30;10.80;6.30
37956;DHT22;23776;51.592;7.180;2023-01-06T03:17:56;10.90;9.40
37956;DHT22;23776;51.592;7.180;2023-01-06T03:20:22;12.40;6.70
37956;DHT22;23776;51.592;7.180;2023-01-06T03:22:48;10.80;3.60
37956;DHT22;23776;51.592;7.180;2023-01-06T03:25:14;11.40;4.70
37956;DHT22;23776;51.592;7.180;2023-01-06T03:27:39;10.80;5.00
37956;DHT22;23776;51.592;7.180;2023-01-06T03:30:08;10.80;5.40
37956;DHT22;23776;51.592;7.180;2023-01-06T03:40:41;10.80;5.00
37956;DHT22;23776;51.592;7.180;2023-01-06T03:49:06;10.80;6.50
37956;DHT22;23776;51.592;7.180;2023-01-06T03:51:38;10.80;5.90
37956;DHT22;23776;51.592;7.180;2023-01-06T03:57:12;10.80;7.10
37956;DHT22;23776;51.592;7.180;2023-01-06T03:59:44;10.80;6.00
37956;DHT22;23776;51.592;7.180;2023-01-06T04:02:11;10.90;3.80
37956;DHT22;23776;51.592;7.180;2023-01-06T04:04:37;10.80;3.60
37956;DHT22;23776;51.592;7.180;2023-01-06T04:07:03;10.80;6.30
37956;DHT22;23776;51.592;7.180;2023-01-06T04:09:29;10.70;4.90
37956;DHT22;23776;51.592;7.180;2023-01-06T04:11:54;10.70;1.00
37956;DHT22;23776;51.592;7.180;2023-01-06T04:14:38;10.70;1.00
37956;DHT22;23776;51.592;7.180;2023-01-06T04:17:04;10.80;1.00
37956;DHT22;23776;51.592;7.180;2023-01-06T04:19:30;10.80;1.00
37956;DHT22;23776;51.592;7.180;2023-01-06T04:21:55;10.80;1.00
37956;DHT22;23776;51.592;7.180;2023-01-06T04:24:21;11.50;1.00
37956;DHT22;23776;51.592;7.180;2023-01-06T04:26:46;11.40;1.00
37956;DHT22;23776;51.592;7.180;2023-01-06T04:29:12;10.90;1.00
37956;DHT22;23776;51.592;7.180;2023-01-06T04:31:37;10.80;1.00
37956;DHT22;23776;51.592;7.180;2023-01-06T04:34:03;10.90;1.00
37956;DHT22;23776;51.592;7.180;2023-01-06T04:36:29;10.80;1.00
37956;DHT22;23776;51.592;7.180;2023-01-06T04:38:55;10.90;1.00
37956;DHT22;23776;51.592;7.180;2023-01-06T04:41:21;10.90;1.00
37956;DHT22;23776;51.592;7.180;2023-01-06T04:43:47;10.90;1.00
37956;DHT22;23776;51.592;7.180;2023-01-06T04:46:13;10.90;1.00
37956;DHT22;23776;51.592;7.180;2023-01-06T04:48:39;11.00;1.00
37956;DHT22;23776;51.592;7.180;2023-01-06T04:51:07;11.80;1.00
37956;DHT22;23776;51.592;7.180;2023-01-06T04:53:37;10.90;1.00
37956;DHT22;23776;51.592;7.180;2023-01-06T04:56:05;10.90;1.00
37956;DHT22;23776;51.592;7.180;2023-01-06T04:58:31;11.00;1.00
37956;DHT22;23776;51.592;7.180;2023-01-06T05:01:09;11.00;1.00
37956;DHT22;23776;51.592;7.180;2023-01-06T05:03:35;11.00;1.00
37956;DHT22;23776;51.592;7.180;2023-01-06T05:06:03;11.00;1.00
37956;DHT22;23776;51.592;7.180;2023-01-06T05:08:30;10.80;1.00
37956;DHT22;23776;51.592;7.180;2023-01-06T05:11:04;12.60;1.00
37956;DHT22;23776;51.592;7.180;2023-01-06T05:13:30;11.00;1.00
37956;DHT22;23776;51.592;7.180;2023-01-06T05:15:56;11.00;1.00
37956;DHT22;23776;51.592;7.180;2023-01-06T05:18:22;11.10;1.00
37956;DHT22;23776;51.592;7.180;2023-01-06T05:20:51;11.10;1.00
37956;DHT22;23776;51.592;7.180;2023-01-06T05:23:17;11.10;1.00
37956;DHT22;23776;51.592;7.180;2023-01-06T05:25:43;11.10;1.00
37956;DHT22;23776;51.592;7.180;2023-01-06T05:28:09;12.00;1.00
37956;DHT22;23776;51.592;7.180;2023-01-06T05:30:34;11.10;1.00
37956;DHT22;23776;51.592;7.180;2023-01-06T05:33:00;12.40;1.00
37956;DHT22;23776;51.592;7.180;2023-01-06T05:35:26;11.10;1.00
37956;DHT22;23776;51.592;7.180;2023-01-06T05:37:55;11.10;1.00
37956;DHT22;23776;51.592;7.180;2023-01-06T05:40:21;11.10;1.00
37956;DHT22;23776;51.592;7.180;2023-01-06T05:42:46;11.10;1.00
37956;DHT22;23776;51.592;7.180;2023-01-06T05:45:12;11.10;1.00
37956;DHT22;23776;51.592;7.180;2023-01-06T05:47:37;11.10;1.00
37956;DHT22;23776;51.592;7.180;2023-01-06T05:50:04;11.10;1.00
37956;DHT22;23776;51.592;7.180;2023-01-06T05:52:29;11.20;1.00
37956;DHT22;23776;51.592;7.180;2023-01-06T05:54:55;11.20;1.00
37956;DHT22;23776;51.592;7.180;2023-01-06T05:57:21;11.20;1.00
37956;DHT22;23776;51.592;7.180;2023-01-06T05:59:46;11.20;1.00
37956;DHT22;23776;51.592;7.180;2023-01-06T06:02:12;11.20;1.00
37956;DHT22;23776;51.592;7.180;2023-01-06T06:04:38;11.20;1.00
37956;DHT22;23776;51.592;7.180;2023-01-06T06:07:03;11.20;1.00
37956;DHT22;23776;51.592;7.180;2023-01-06T06:09:29;11.20;1.00
37956;DHT22;23776;51.592;7.180;2023-01-06T06:11:55;11.20;1.00
37956;DHT22;23776;51.592;7.180;2023-01-06T06:14:20;11.30;1.00
37956;DHT22;23776;51.592;7.180;2023-01-06T06:16:46;11.20;1.00
37956;DHT22;23776;51.592;7.180;2023-01-06T06:19:12;11.20;1.00
37956;DHT22;23776;51.592;7.180;2023-01-06T06:21:38;11.20;1.00
37956;DHT22;23776;51.592;7.180;2023-01-06T06:24:04;11.20;1.00
37956;DHT22;23776;51.592;7.180;2023-01-06T06:26:30;11.20;1.00
37956;DHT22;23776;51.592;7.180;2023-01-06T06:28:56;11.10;1.00
37956;DHT22;23776;51.592;7.180;2023-01-06T06:31:24;11.10;1.00
37956;DHT22;23776;51.592;7.180;2023-01-06T06:33:51;11.10;1.00
37956;DHT22;23776;51.592;7.180;2023-01-06T06:36:17;11.20;1.00
37956;DHT22;23776;51.592;7.180;2023-01-06T06:38:44;11.10;1.00
37956;DHT22;23776;51.592;7.180;2023-01-06T06:41:10;11.20;1.00
37956;DHT22;23776;51.592;7.180;2023-01-06T06:43:37;11.10;1.00
37956;DHT22;23776;51.592;7.180;2023-01-06T06:46:02;11.10;1.00
37956;DHT22;23776;51.592;7.180;2023-01-06T06:48:28;11.20;1.00
37956;DHT22;23776;51.592;7.180;2023-01-06T06:51:01;11.10;1.00
37956;DHT22;23776;51.592;7.180;2023-01-06T06:53:27;11.10;1.00
37956;DHT22;23776;51.592;7.180;2023-01-06T06:55:54;11.10;1.00
37956;DHT22;23776;51.592;7.180;2023-01-06T06:58:20;11.40;1.00
37956;DHT22;23776;51.592;7.180;2023-01-06T07:00:46;11.10;1.00
37956;DHT22;23776;51.592;7.180;2023-01-06T07:03:11;11.10;1.00
37956;DHT22;23776;51.592;7.180;2023-01-06T07:05:37;11.10;1.00
37956;DHT22;23776;51.592;7.180;2023-01-06T07:08:03;11.10;1.00
37956;DHT22;23776;51.592;7.180;2023-01-06T07:10:29;11.10;1.00
37956;DHT22;23776;51.592;7.180;2023-01-06T07:12:55;11.10;1.00
37956;DHT22;23776;51.592;7.180;2023-01-06T07:15:21;11.10;1.00
37956;DHT22;23776;51.592;7.180;2023-01-06T07:17:46;11.10;1.00
37956;DHT22;23776;51.592;7.180;2023-01-06T07:20:12;11.20;1.00
37956;DHT22;23776;51.592;7.180;2023-01-06T07:22:38;11.20;1.00
37956;DHT22;23776;51.592;7.180;2023-01-06T07:25:08;11.20;1.00
37956;DHT22;23776;51.592;7.180;2023-01-06T07:27:34;11.10;1.00
37956;DHT22;23776;51.592;7.180;2023-01-06T07:30:01;11.10;1.00
37956;DHT22;23776;51.592;7.180;2023-01-06T07:32:27;11.20;1.00
37956;DHT22;23776;51.592;7.180;2023-01-06T07:34:52;11.20;1.00
37956;DHT22;23776;51.592;7.180;2023-01-06T07:37:18;11.20;1.00
37956;DHT22;23776;51.592;7.180;2023-01-06T07:39:43;11.20;1.00
37956;DHT22;23776;51.592;7.180;2023-01-06T07:42:09;11.30;1.00
37956;DHT22;23776;51.592;7.180;2023-01-06T07:44:35;11.80;1.00
37956;DHT22;23776;51.592;7.180;2023-01-06T07:47:01;11.20;1.00
37956;DHT22;23776;51.592;7.180;2023-01-06T07:49:27;11.20;1.00
37956;DHT22;23776;51.592;7.180;2023-01-06T07:51:52;11.30;1.00
37956;DHT22;23776;51.592;7.180;2023-01-06T07:54:18;11.50;1.00
37956;DHT22;23776;51.592;7.180;2023-01-06T07:56:44;11.30;1.00
37956;DHT22;23776;51.592;7.180;2023-01-06T07:59:10;11.30;1.00
37956;DHT22;23776;51.592;7.180;2023-01-06T08:01:36;11.30;1.00
37956;DHT22;23776;51.592;7.180;2023-01-06T08:04:01;11.30;1.00
37956;DHT22;23776;51.592;7.180;2023-01-06T08:06:27;11.30;1.00
37956;DHT22;23776;51.592;7.180;2023-01-06T08:08:52;11.30;1.00
37956;DHT22;23776;51.592;7.180;2023-01-06T08:11:19;11.40;1.00
37956;DHT22;23776;51.592;7.180;2023-01-06T08:13:45;11.40;1.00
37956;DHT22;23776;51.592;7.180;2023-01-06T08:16:10;11.40;1.00
37956;DHT22;23776;51.592;7.180;2023-01-06T08:18:36;11.40;1.00
37956;DHT22;23776;51.592;7.180;2023-01-06T08:21:07;11.80;1.00
37956;DHT22;23776;51.592;7.180;2023-01-06T08:23:34;11.90;1.00
37956;DHT22;23776;51.592;7.180;2023-01-06T08:26:12;11.60;1.00
37956;DHT22;23776;51.592;7.180;2023-01-06T08:28:39;11.40;1.00
37956;DHT22;23776;51.592;7.180;2023-01-06T08:31:13;11.40;1.00
37956;DHT22;23776;51.592;7.180;2023-01-06T08:33:39;11.40;1.00
37956;DHT22;23776;51.592;7.180;2023-01-06T08:36:07;11.40;1.00
37956;DHT22;23776;51.592;7.180;2023-01-06T08:38:34;11.40;1.00
37956;DHT22;23776;51.592;7.180;2023-01-06T08:41:01;11.40;1.00
37956;DHT22;23776;51.592;7.180;2023-01-06T08:43:27;11.40;1.00
37956;DHT22;23776;51.592;7.180;2023-01-06T08:45:59;11.30;1.00
37956;DHT22;23776;51.592;7.180;2023-01-06T08:48:25;11.30;1.00
37956;DHT22;23776;51.592;7.180;2023-01-06T08:50:50;11.30;1.00
37956;DHT22;23776;51.592;7.180;2023-01-06T08:53:16;11.20;1.00
37956;DHT22;23776;51.592;7.180;2023-01-06T08:55:41;11.20;1.00
37956;DHT22;23776;51.592;7.180;2023-01-06T08:58:08;11.30;1.00
37956;DHT22;23776;51.592;7.180;2023-01-06T09:00:35;10.90;1.00
37956;DHT22;23776;51.592;7.180;2023-01-06T09:03:00;11.10;1.00
37956;DHT22;23776;51.592;7.180;2023-01-06T09:05:26;12.10;1.00
37956;DHT22;23776;51.592;7.180;2023-01-06T09:07:52;11.10;1.00
37956;DHT22;23776;51.592;7.180;2023-01-06T09:10:19;11.20;1.00
37956;DHT22;23776;51.592;7.180;2023-01-06T09:12:45;9.90;1.00
37956;DHT22;23776;51.592;7.180;2023-01-06T09:15:11;11.10;1.00
37956;DHT22;23776;51.592;7.180;2023-01-06T09:17:37;11.20;1.00
37956;DHT22;23776;51.592;7.180;2023-01-06T09:20:03;11.20;1.00
37956;DHT22;23776;51.592;7.180;2023-01-06T09:22:29;11.20;1.00
37956;DHT22;23776;51.592;7.180;2023-01-06T09:24:54;11.50;1.00
37956;DHT22;23776;51.592;7.180;2023-01-06T09:27:20;11.30;1.00
37956;DHT22;23776;51.592;7.180;2023-01-06T09:29:45;11.20;1.00
37956;DHT22;23776;51.592;7.180;2023-01-06T09:32:11;11.30;1.00
37956;DHT22;23776;51.592;7.180;2023-01-06T09:34:36;11.30;1.00
37956;DHT22;23776;51.592;7.180;2023-01-06T09:37:02;11.30;1.00
37956;DHT22;23776;51.592;7.180;2023-01-06T09:39:28;11.20;1.00
37956;DHT22;23776;51.592;7.180;2023-01-06T09:44:39;11.20;1.90
37956;DHT22;23776;51.592;7.180;2023-01-06T09:47:09;11.20;15.50
37956;DHT22;23776;51.592;7.180;2023-01-06T09:49:44;11.00;35.60
37956;DHT22;23776;51.592;7.180;2023-01-06T09:52:27;10.80;42.10
37956;DHT22;23776;51.592;7.180;2023-01-06T09:57:31;10.70;47.20
37956;DHT22;23776;51.592;7.180;2023-01-06T10:00:34;10.80;48.10
37956;DHT22;23776;51.592;7.180;2023-01-06T10:03:03;10.70;52.00
37956;DHT22;23776;51.592;7.180;2023-01-06T10:05:45;10.70;48.60
37956;DHT22;23776;51.592;7.180;2023-01-06T10:08:34;10.80;48.60
37956;DHT22;23776;51.592;7.180;2023-01-06T10:11:36;10.80;49.10
37956;DHT22;23776;51.592;7.180;2023-01-06T10:19:46;11.70;46.40
37956;DHT22;23776;51.592;7.180;2023-01-06T10:27:40;11.10;42.80
37956;DHT22;23776;51.592;7.180;2023-01-06T10:30:24;11.20;41.20
37956;DHT22;23776;51.592;7.180;2023-01-06T10:32:50;11.20;39.70
37956;DHT22;23776;51.592;7.180;2023-01-06T10:35:19;11.30;33.40
37956;DHT22;23776;51.592;7.180;2023-01-06T10:37:46;11.40;32.20
37956;DHT22;23776;51.592;7.180;2023-01-06T10:40:24;11.40;29.90
37956;DHT22;23776;51.592;7.180;2023-01-06T10:43:00;11.50;26.90
37956;DHT22;23776;51.592;7.180;2023-01-06T10:45:42;11.50;25.30
37956;DHT22;23776;51.592;7.180;2023-01-06T10:48:13;11.50;21.50
37956;DHT22;23776;51.592;7.180;2023-01-06T10:50:39;12.30;22.70
37956;DHT22;23776;51.592;7.180;2023-01-06T10:53:06;11.50;20.80
37956;DHT22;23776;51.592;7.180;2023-01-06T10:55:48;11.50;24.50
37956;DHT22;23776;51.592;7.180;2023-01-06T11:03:33;11.50;15.00
37956;DHT22;23776;51.592;7.180;2023-01-06T11:06:15;11.50;17.10
37956;DHT22;23776;51.592;7.180;2023-01-06T11:08:43;11.50;16.40
37956;DHT22;23776;51.592;7.180;2023-01-06T11:11:14;11.60;18.00
37956;DHT22;23776;51.592;7.180;2023-01-06T11:13:46;11.50;15.80
37956;DHT22;23776;51.592;7.180;2023-01-06T11:16:32;12.40;15.90
37956;DHT22;23776;51.592;7.180;2023-01-06T11:19:03;11.30;18.20
37956;DHT22;23776;51.592;7.180;2023-01-06T11:21:43;11.40;17.20
37956;DHT22;23776;51.592;7.180;2023-01-06T11:24:18;11.40;10.50
37956;DHT22;23776;51.592;7.180;2023-01-06T11:29:34;11.40;13.60
37956;DHT22;23776;51.592;7.180;2023-01-06T11:32:17;11.50;8.50
37956;DHT22;23776;51.592;7.180;2023-01-06T11:35:04;11.50;5.80
37956;DHT22;23776;51.592;7.180;2023-01-06T11:37:40;11.50;7.40
37956;DHT22;23776;51.592;7.180;2023-01-06T11:40:21;11.60;5.30
37956;DHT22;23776;51.592;7.180;2023-01-06T11:42:52;11.70;1.00
37956;DHT22;23776;51.592;7.180;2023-01-06T11:45:43;11.60;1.00
37956;DHT22;23776;51.592;7.180;2023-01-06T11:48:25;11.60;1.00
37956;DHT22;23776;51.592;7.180;2023-01-06T11:50:54;11.70;1.00
37956;DHT22;23776;51.592;7.180;2023-01-06T11:53:20;12.00;1.00
37956;DHT22;23776;51.592;7.180;2023-01-06T11:56:16;11.70;1.00
37956;DHT22;23776;51.592;7.180;2023-01-06T12:01:45;11.80;1.00
37956;DHT22;23776;51.592;7.180;2023-01-06T12:04:40;11.90;1.00
37956;DHT22;23776;51.592;7.180;2023-01-06T12:07:28;11.90;1.00
37956;DHT22;23776;51.592;7.180;2023-01-06T12:10:01;11.80;1.00
37956;DHT22;23776;51.592;7.180;2023-01-06T12:12:28;11.90;1.00
37956;DHT22;23776;51.592;7.180;2023-01-06T12:14:54;12.10;1.00
37956;DHT22;23776;51.592;7.180;2023-01-06T12:25:20;12.10;1.00
37956;DHT22;23776;51.592;7.180;2023-01-06T12:28:01;12.10;1.00
37956;DHT22;23776;51.592;7.180;2023-01-06T12:30:43;11.90;1.00
37956;DHT22;23776;51.592;7.180;2023-01-06T12:33:22;12.40;1.00
37956;DHT22;23776;51.592;7.180;2023-01-06T12:35:53;11.90;1.00
37956;DHT22;23776;51.592;7.180;2023-01-06T12:38:40;12.00;1.00
37956;DHT22;23776;51.592;7.180;2023-01-06T12:41:26;12.10;1.00
37956;DHT22;23776;51.592;7.180;2023-01-06T12:47:31;12.20;1.00
37956;DHT22;23776;51.592;7.180;2023-01-06T12:52:05;12.30;1.00
37956;DHT22;23776;51.592;7.180;2023-01-06T12:54:33;12.20;1.00
37956;DHT22;23776;51.592;7.180;2023-01-06T12:59:59;12.40;1.00
37956;DHT22;23776;51.592;7.180;2023-01-06T13:02:47;12.50;1.00
37956;DHT22;23776;51.592;7.180;2023-01-06T13:05:40;12.60;1.00
37956;DHT22;23776;51.592;7.180;2023-01-06T13:10:45;12.60;99.90
37956;DHT22;23776;51.592;7.180;2023-01-06T13:13:37;12.60;99.90
37956;DHT22;23776;51.592;7.180;2023-01-06T13:16:36;12.60;99.90
37956;DHT22;23776;51.592;7.180;2023-01-06T13:21:42;12.70;99.90
37956;DHT22;23776;51.592;7.180;2023-01-06T13:24:30;12.80;99.90
37956;DHT22;23776;51.592;7.180;2023-01-06T13:27:17;12.80;99.90
37956;DHT22;23776;51.592;7.180;2023-01-06T13:40:25;12.40;99.90
37956;DHT22;23776;51.592;7.180;2023-01-06T13:43:01;12.80;99.90
37956;DHT22;23776;51.592;7.180;2023-01-06T13:45:40;12.90;99.90
37956;DHT22;23776;51.592;7.180;2023-01-06T13:48:14;12.90;99.90
37956;DHT22;23776;51.592;7.180;2023-01-06T13:50:41;13.00;99.90
37956;DHT22;23776;51.592;7.180;2023-01-06T13:53:14;12.90;99.90
37956;DHT22;23776;51.592;7.180;2023-01-06T13:55:40;12.90;99.90
37956;DHT22;23776;51.592;7.180;2023-01-06T14:01:06;12.70;99.90
37956;DHT22;23776;51.592;7.180;2023-01-06T14:03:32;12.60;99.90
37956;DHT22;23776;51.592;7.180;2023-01-06T14:05:59;12.70;99.90
37956;DHT22;23776;51.592;7.180;2023-01-06T14:08:28;12.60;99.90
37956;DHT22;23776;51.592;7.180;2023-01-06T14:10:57;12.60;99.90
37956;DHT22;23776;51.592;7.180;2023-01-06T14:13:32;12.60;99.90
37956;DHT22;23776;51.592;7.180;2023-01-06T14:16:08;12.40;1.00
37956;DHT22;23776;51.592;7.180;2023-01-06T14:18:45;12.40;1.00
37956;DHT22;23776;51.592;7.180;2023-01-06T14:23:37;12.30;1.00
37956;DHT22;23776;51.592;7.180;2023-01-06T14:26:04;12.20;1.00
37956;DHT22;23776;51.592;7.180;2023-01-06T14:28:32;12.20;1.00
37956;DHT22;23776;51.592;7.180;2023-01-06T14:34:00;12.10;1.00
37956;DHT22;23776;51.592;7.180;2023-01-06T14:36:28;12.20;1.00
37956;DHT22;23776;51.592;7.180;2023-01-06T14:38:59;12.30;1.00
37956;DHT22;23776;51.592;7.180;2023-01-06T14:41:51;12.30;1.00
37956;DHT22;23776;51.592;7.180;2023-01-06T14:44:23;12.30;1.00
37956;DHT22;23776;51.592;7.180;2023-01-06T14:46:55;12.40;1.00
37956;DHT22;23776;51.592;7.180;2023-01-06T14:49:53;13.00;1.00
37956;DHT22;23776;51.592;7.180;2023-01-06T14:52:30;12.40;1.00
37956;DHT22;23776;51.592;7.180;2023-01-06T14:54:57;12.40;1.00
37956;DHT22;23776;51.592;7.180;2023-01-06T14:57:25;12.30;1.00
37956;DHT22;23776;51.592;7.180;2023-01-06T15:00:18;12.40;1.00
37956;DHT22;23776;51.592;7.180;2023-01-06T15:03:04;12.30;1.00
37956;DHT22;23776;51.592;7.180;2023-01-06T15:05:41;12.40;1.00
37956;DHT22;23776;51.592;7.180;2023-01-06T15:10:38;12.30;1.00
37956;DHT22;23776;51.592;7.180;2023-01-06T15:18:32;12.10;1.00
37956;DHT22;23776;51.592;7.180;2023-01-06T15:20:59;12.10;1.00
37956;DHT22;23776;51.592;7.180;2023-01-06T15:23:25;12.30;1.00
37956;DHT22;23776;51.592;7.180;2023-01-06T15:25:53;12.00;1.00
37956;DHT22;23776;51.592;7.180;2023-01-06T15:28:27;12.00;1.00
37956;DHT22;23776;51.592;7.180;2023-01-06T15:30:53;11.90;1.00
37956;DHT22;23776;51.592;7.180;2023-01-06T15:33:21;11.90;1.00
37956;DHT22;23776;51.592;7.180;2023-01-06T15:35:49;11.80;1.00
37956;DHT22;23776;51.592;7.180;2023-01-06T15:40:50;11.80;1.00
37956;DHT22;23776;51.592;7.180;2023-01-06T15:43:16;11.80;1.00
37956;DHT22;23776;51.592;7.180;2023-01-06T15:45:43;11.70;1.00
37956;DHT22;23776;51.592;7.180;2023-01-06T15:48:26;11.70;1.00
37956;DHT22;23776;51.592;7.180;2023-01-06T15:50:53;11.60;1.90
37956;DHT22;23776;51.592;7.180;2023-01-06T15:53:21;12.80;3.10
37956;DHT22;23776;51.592;7.180;2023-01-06T15:55:50;11.60;2.60
37956;DHT22;23776;51.592;7.180;2023-01-06T15:58:26;11.60;5.10
37956;DHT22;23776;51.592;7.180;2023-01-06T16:00:59;11.60;6.10
37956;DHT22;23776;51.592;7.180;2023-01-06T16:03:27;11.70;7.10
37956;DHT22;23776;51.592;7.180;2023-01-06T16:06:13;11.60;10.60
37956;DHT22;23776;51.592;7.180;2023-01-06T16:08:40;11.60;10.40
37956;DHT22;23776;51.592;7.180;2023-01-06T16:11:23;11.60;11.80
37956;DHT22;23776;51.592;7.180;2023-01-06T16:14:46;11.40;16.40
37956;DHT22;23776;51.592;7.180;2023-01-06T16:17:26;11.60;17.70
37956;DHT22;23776;51.592;7.180;2023-01-06T16:19:57;11.60;18.60
37956;DHT22;23776;51.592;7.180;2023-01-06T16:27:49;11.40;32.30
37956;DHT22;23776;51.592;7.180;2023-01-06T16:32:44;11.20;48.50
37956;DHT22;23776;51.592;7.180;2023-01-06T16:37:36;11.00;57.50
37956;DHT22;23776;51.592;7.180;2023-01-06T16:40:02;10.90;57.20
37956;DHT22;23776;51.592;7.180;2023-01-06T16:42:46;10.90;57.30
37956;DHT22;23776;51.592;7.180;2023-01-06T16:45:38;11.50;58.70
37956;DHT22;23776;51.592;7.180;2023-01-06T16:48:06;10.90;58.40
37956;DHT22;23776;51.592;7.180;2023-01-06T16:50:42;10.90;60.30
37956;DHT22;23776;51.592;7.180;2023-01-06T16:53:16;10.90;59.70
37956;DHT22;23776;51.592;7.180;2023-01-06T16:55:43;10.90;60.70
37956;DHT22;23776;51.592;7.180;2023-01-06T17:00:39;11.20;61.40
37956;DHT22;23776;51.592;7.180;2023-01-06T17:03:12;10.90;63.70
37956;DHT22;23776;51.592;7.180;2023-01-06T17:05:38;10.80;65.60
37956;DHT22;23776;51.592;7.180;2023-01-06T17:08:10;11.70;67.90
37956;DHT22;23776;51.592;7.180;2023-01-06T17:10:36;10.70;67.50
37956;DHT22;23776;51.592;7.180;2023-01-06T17:13:03;10.70;67.80
37956;DHT22;23776;51.592;7.180;2023-01-06T17:15:58;10.80;68.10
37956;DHT22;23776;51.592;7.180;2023-01-06T17:18:26;10.70;67.90
37956;DHT22;23776;51.592;7.180;2023-01-06T17:21:18;10.70;68.50
37956;DHT22;23776;51.592;7.180;2023-01-06T17:26:36;10.70;66.20
37956;DHT22;23776;51.592;7.180;2023-01-06T17:29:05;10.80;66.00
37956;DHT22;23776;51.592;7.180;2023-01-06T17:31:37;12.00;66.20
37956;DHT22;23776;51.592;7.180;2023-01-06T17:34:30;10.80;66.20
37956;DHT22;23776;51.592;7.180;2023-01-06T17:37:01;10.80;66.20
37956;DHT22;23776;51.592;7.180;2023-01-06T17:39:30;11.60;64.90
37956;DHT22;23776;51.592;7.180;2023-01-06T17:42:40;10.80;62.80
37956;DHT22;23776;51.592;7.180;2023-01-06T17:45:17;10.70;63.00
37956;DHT22;23776;51.592;7.180;2023-01-06T17:47:48;10.70;62.40
37956;DHT22;23776;51.592;7.180;2023-01-06T17:50:51;10.70;62.70
37956;DHT22;23776;51.592;7.180;2023-01-06T17:53:18;10.70;62.90
37956;DHT22;23776;51.592;7.180;2023-01-06T17:56:09;10.80;61.60
37956;DHT22;23776;51.592;7.180;2023-01-06T17:58:38;10.80;60.40
37956;DHT22;23776;51.592;7.180;2023-01-06T18:01:07;10.80;60.60
37956;DHT22;23776;51.592;7.180;2023-01-06T18:03:36;10.80;61.30
37956;DHT22;23776;51.592;7.180;2023-01-06T18:06:35;10.90;60.20
37956;DHT22;23776;51.592;7.180;2023-01-06T18:09:21;10.90;59.50
37956;DHT22;23776;51.592;7.180;2023-01-06T18:11:51;10.80;59.20
37956;DHT22;23776;51.592;7.180;2023-01-06T18:14:26;10.80;59.50
37956;DHT22;23776;51.592;7.180;2023-01-06T18:16:53;10.90;59.00
37956;DHT22;23776;51.592;7.180;2023-01-06T18:19:35;10.90;58.00
37956;DHT22;23776;51.592;7.180;2023-01-06T18:22:15;10.90;57.90